PWSweather.com
Personal Weather Stations
Station Observations

ChardChardGB

Lat: 50.877408, Lon: -2.94964741

Elevation: 341

Station Type: WS3083

http://www.merriott-astro.co.uk/weather/index.htm

High Low Average
Temperature 80.2°F26.8°C 57.2°F14.0°C 67.1°F19.5°C
Dew Point 60.0°F15.6°C 51.8°F11.0°C 56.2°F13.4°C
Winds 6.4 mph 10.3 kmh Calm Calm 3.0 mph SSW4.8 kmh SSW
Wind Gusts 10.7 mph17.2 kmh -- 4.0 mph6.4 kmh
Humidity 86% 47% 69%
Pressure 29.56 in1001.0 mb 29.49 in998.6 mb -
Precipitation 0.00 in0.0 mm - -
Hour Temp Dew Point Humidity Winds Wind Gusts Pressure Precip Precip Rate Daily Precip Total
12:00 AM 60.4°F15.8°C 51.8°F11.0°C 73% Calm Calm -- 29.56 in1001.0 mb 0.00 in0.0 mm 0.00 in0.0 mm 0.00 in0.0 mm
12:10 AM 60.4°F15.8°C 51.8°F11.0°C 73% Calm Calm -- 29.56 in1001.0 mb 0.00 in0.0 mm 0.00 in0.0 mm 0.00 in0.0 mm
12:20 AM 60.6°F15.9°C 51.9°F11.1°C 73% 1.1 mph SW1.8 kmh SW 2.2 mph3.5 kmh 29.56 in1001.0 mb 0.00 in0.0 mm 0.00 in0.0 mm 0.00 in0.0 mm
12:30 AM 60.4°F15.8°C 51.8°F11.0°C 73% 0.6 mph SSW1.0 kmh SSW 1.6 mph2.6 kmh 29.56 in1001.0 mb 0.00 in0.0 mm 0.00 in0.0 mm 0.00 in0.0 mm
12:40 AM 60.4°F15.8°C 51.8°F11.0°C 73% 1.3 mph S2.1 kmh S 2.2 mph3.5 kmh 29.55 in1000.7 mb 0.00 in0.0 mm 0.00 in0.0 mm 0.00 in0.0 mm
12:50 AM 60.3°F15.7°C 52.0°F11.1°C 74% 1.5 mph SW2.4 kmh SW 3.1 mph5.0 kmh 29.55 in1000.7 mb 0.00 in0.0 mm 0.00 in0.0 mm 0.00 in0.0 mm
01:00 AM 60.1°F15.6°C 52.5°F11.4°C 76% 2.5 mph S4.0 kmh S 3.8 mph6.1 kmh 29.54 in1000.3 mb 0.00 in0.0 mm 0.00 in0.0 mm 0.00 in0.0 mm
01:10 AM 59.9°F15.5°C 52.7°F11.5°C 77% 1.6 mph SW2.6 kmh SW 3.1 mph5.0 kmh 29.54 in1000.3 mb 0.00 in0.0 mm 0.00 in0.0 mm 0.00 in0.0 mm
01:20 AM 59.9°F15.5°C 52.7°F11.5°C 77% 1.6 mph SSW2.6 kmh SSW 2.2 mph3.5 kmh 29.54 in1000.3 mb 0.00 in0.0 mm 0.00 in0.0 mm 0.00 in0.0 mm
01:30 AM 60.1°F15.6°C 52.5°F11.4°C 76% 1.5 mph SW2.4 kmh SW 3.1 mph5.0 kmh 29.54 in1000.3 mb 0.00 in0.0 mm 0.00 in0.0 mm 0.00 in0.0 mm
01:40 AM 59.9°F15.5°C 52.7°F11.5°C 77% 2.2 mph SSW3.5 kmh SSW 3.8 mph6.1 kmh 29.54 in1000.3 mb 0.00 in0.0 mm 0.00 in0.0 mm 0.00 in0.0 mm
01:50 AM 59.5°F15.3°C 52.7°F11.5°C 78% 1.3 mph SW2.1 kmh SW 3.8 mph6.1 kmh 29.54 in1000.3 mb 0.00 in0.0 mm 0.00 in0.0 mm 0.00 in0.0 mm
02:00 AM 59.5°F15.3°C 53.0°F11.7°C 79% 1.9 mph WSW3.1 kmh WSW 3.1 mph5.0 kmh 29.53 in1000.0 mb 0.00 in0.0 mm 0.00 in0.0 mm 0.00 in0.0 mm
02:10 AM 59.5°F15.3°C 53.0°F11.7°C 79% 2.2 mph S3.5 kmh S 3.1 mph5.0 kmh 29.53 in1000.0 mb 0.00 in0.0 mm 0.00 in0.0 mm 0.00 in0.0 mm
02:20 AM 59.9°F15.5°C 53.7°F12.1°C 80% 0.6 mph S1.0 kmh S 2.2 mph3.5 kmh 29.53 in1000.0 mb 0.00 in0.0 mm 0.00 in0.0 mm 0.00 in0.0 mm
02:30 AM 60.1°F15.6°C 53.6°F12.0°C 79% 0.2 mph SW0.3 kmh SW 0.7 mph1.1 kmh 29.52 in999.7 mb 0.00 in0.0 mm 0.00 in0.0 mm 0.00 in0.0 mm
02:40 AM 59.9°F15.5°C 53.0°F11.7°C 78% 0.2 mph SW0.3 kmh SW 1.6 mph2.6 kmh 29.52 in999.7 mb 0.00 in0.0 mm 0.00 in0.0 mm 0.00 in0.0 mm
02:50 AM 59.5°F15.3°C 53.0°F11.7°C 79% 2.1 mph SSW3.4 kmh SSW 3.8 mph6.1 kmh 29.52 in999.7 mb 0.00 in0.0 mm 0.00 in0.0 mm 0.00 in0.0 mm
03:00 AM 59.2°F15.1°C 52.7°F11.5°C 79% 2.5 mph S4.0 kmh S 4.5 mph7.2 kmh 29.52 in999.7 mb 0.00 in0.0 mm 0.00 in0.0 mm 0.00 in0.0 mm
03:10 AM 59.0°F15.0°C 52.9°F11.6°C 80% 0.2 mph S0.3 kmh S 1.6 mph2.6 kmh 29.52 in999.7 mb 0.00 in0.0 mm 0.00 in0.0 mm 0.00 in0.0 mm
03:20 AM 58.8°F14.9°C 52.7°F11.5°C 80% 0.6 mph S1.0 kmh S 1.6 mph2.6 kmh 29.52 in999.7 mb 0.00 in0.0 mm 0.00 in0.0 mm 0.00 in0.0 mm
03:30 AM 58.8°F14.9°C 52.7°F11.5°C 80% 0.8 mph SW1.3 kmh SW 2.2 mph3.5 kmh 29.51 in999.3 mb 0.00 in0.0 mm 0.00 in0.0 mm 0.00 in0.0 mm
03:40 AM 58.8°F14.9°C 52.7°F11.5°C 80% 1.4 mph S2.3 kmh S 2.2 mph3.5 kmh 29.52 in999.7 mb 0.00 in0.0 mm 0.00 in0.0 mm 0.00 in0.0 mm
03:50 AM 58.6°F14.8°C 52.8°F11.6°C 81% 2.7 mph SSW4.3 kmh SSW 3.8 mph6.1 kmh 29.52 in999.7 mb 0.00 in0.0 mm 0.00 in0.0 mm 0.00 in0.0 mm
04:00 AM 58.3°F14.6°C 52.5°F11.4°C 81% 1.8 mph SSW2.9 kmh SSW 3.1 mph5.0 kmh 29.52 in999.7 mb 0.00 in0.0 mm 0.00 in0.0 mm 0.00 in0.0 mm
04:10 AM 57.9°F14.4°C 52.1°F11.2°C 81% 2.2 mph SSW3.5 kmh SSW 3.1 mph5.0 kmh 29.52 in999.7 mb 0.00 in0.0 mm 0.00 in0.0 mm 0.00 in0.0 mm
04:20 AM 57.7°F14.3°C 52.3°F11.3°C 82% 2.5 mph S4.0 kmh S 3.8 mph6.1 kmh 29.52 in999.7 mb 0.00 in0.0 mm 0.00 in0.0 mm 0.00 in0.0 mm
04:30 AM 57.4°F14.1°C 51.9°F11.1°C 82% 0.8 mph SW1.3 kmh SW 2.2 mph3.5 kmh 29.52 in999.7 mb 0.00 in0.0 mm 0.00 in0.0 mm 0.00 in0.0 mm
04:40 AM 57.2°F14.0°C 51.8°F11.0°C 82% 0.1 mph S0.2 kmh S 0.7 mph1.1 kmh 29.52 in999.7 mb 0.00 in0.0 mm 0.00 in0.0 mm 0.00 in0.0 mm
04:50 AM 57.4°F14.1°C 52.3°F11.3°C 83% 1.1 mph SSW1.8 kmh SSW 2.2 mph3.5 kmh 29.51 in999.3 mb 0.00 in0.0 mm 0.00 in0.0 mm 0.00 in0.0 mm
05:00 AM 57.6°F14.2°C 52.8°F11.6°C 84% 1.3 mph SW2.1 kmh SW 2.2 mph3.5 kmh 29.51 in999.3 mb 0.00 in0.0 mm 0.00 in0.0 mm 0.00 in0.0 mm
05:10 AM 58.5°F14.7°C 54.0°F12.2°C 85% 0.9 mph SSW1.4 kmh SSW 1.6 mph2.6 kmh 29.51 in999.3 mb 0.00 in0.0 mm 0.00 in0.0 mm 0.00 in0.0 mm
05:20 AM 58.6°F14.8°C 54.2°F12.3°C 85% 0.3 mph S0.5 kmh S 0.7 mph1.1 kmh 29.51 in999.3 mb 0.00 in0.0 mm 0.00 in0.0 mm 0.00 in0.0 mm
05:30 AM 59.2°F15.1°C 55.0°F12.8°C 86% 0.3 mph SSW0.5 kmh SSW 3.1 mph5.0 kmh 29.51 in999.3 mb 0.00 in0.0 mm 0.00 in0.0 mm 0.00 in0.0 mm
05:40 AM 59.4°F15.2°C 55.2°F12.9°C 86% 1.0 mph SW1.6 kmh SW 3.1 mph5.0 kmh 29.50 in999.0 mb 0.00 in0.0 mm 0.00 in0.0 mm 0.00 in0.0 mm
05:50 AM 59.5°F15.3°C 55.4°F13.0°C 86% 1.6 mph SE2.6 kmh SE 2.2 mph3.5 kmh 29.51 in999.3 mb 0.00 in0.0 mm 0.00 in0.0 mm 0.00 in0.0 mm
06:00 AM 59.7°F15.4°C 55.5°F13.1°C 86% 3.7 mph S6.0 kmh S 5.4 mph8.7 kmh 29.51 in999.3 mb 0.00 in0.0 mm 0.00 in0.0 mm 0.00 in0.0 mm
06:10 AM 59.9°F15.5°C 55.7°F13.2°C 86% 2.7 mph S4.3 kmh S 3.8 mph6.1 kmh 29.52 in999.7 mb 0.00 in0.0 mm 0.00 in0.0 mm 0.00 in0.0 mm
06:20 AM 61.2°F16.2°C 56.6°F13.7°C 85% 2.5 mph SSW4.0 kmh SSW 3.8 mph6.1 kmh 29.52 in999.7 mb 0.00 in0.0 mm 0.00 in0.0 mm 0.00 in0.0 mm
06:30 AM 66.0°F18.9°C 59.7°F15.4°C 80% 1.3 mph S2.1 kmh S 3.1 mph5.0 kmh 29.52 in999.7 mb 0.00 in0.0 mm 0.00 in0.0 mm 0.00 in0.0 mm
06:40 AM 69.4°F20.8°C 60.0°F15.6°C 72% 1.4 mph SSE2.3 kmh SSE 3.1 mph5.0 kmh 29.51 in999.3 mb 0.00 in0.0 mm 0.00 in0.0 mm 0.00 in0.0 mm
06:50 AM 72.0°F22.2°C 58.7°F14.8°C 63% 1.9 mph ENE3.1 kmh ENE 4.5 mph7.2 kmh 29.52 in999.7 mb 0.00 in0.0 mm 0.00 in0.0 mm 0.00 in0.0 mm
07:00 AM 70.9°F21.6°C 57.7°F14.3°C 63% 2.9 mph N4.7 kmh N 3.8 mph6.1 kmh 29.51 in999.3 mb 0.00 in0.0 mm 0.00 in0.0 mm 0.00 in0.0 mm
07:10 AM 73.0°F22.8°C 58.8°F14.9°C 61% 1.3 mph NW2.1 kmh NW 2.2 mph3.5 kmh 29.51 in999.3 mb 0.00 in0.0 mm 0.00 in0.0 mm 0.00 in0.0 mm
07:20 AM 72.0°F22.2°C 57.8°F14.3°C 61% 3.0 mph NW4.8 kmh NW 5.4 mph8.7 kmh 29.51 in999.3 mb 0.00 in0.0 mm 0.00 in0.0 mm 0.00 in0.0 mm
07:30 AM 70.0°F21.1°C 57.3°F14.1°C 64% 1.8 mph NW2.9 kmh NW 3.8 mph6.1 kmh 29.52 in999.7 mb 0.00 in0.0 mm 0.00 in0.0 mm 0.00 in0.0 mm
07:40 AM 68.9°F20.5°C 57.1°F13.9°C 66% 1.3 mph W2.1 kmh W 3.8 mph6.1 kmh 29.52 in999.7 mb 0.00 in0.0 mm 0.00 in0.0 mm 0.00 in0.0 mm
07:50 AM 72.3°F22.4°C 59.9°F15.5°C 65% 1.8 mph NNW2.9 kmh NNW 3.1 mph5.0 kmh 29.52 in999.7 mb 0.00 in0.0 mm 0.00 in0.0 mm 0.00 in0.0 mm
08:00 AM 70.3°F21.3°C 57.2°F14.0°C 63% 3.6 mph NW5.8 kmh NW 6.9 mph11.1 kmh 29.51 in999.3 mb 0.00 in0.0 mm 0.00 in0.0 mm 0.00 in0.0 mm
08:10 AM 66.9°F19.4°C 55.2°F12.9°C 66% 3.9 mph NW6.3 kmh NW 6.9 mph11.1 kmh 29.52 in999.7 mb 0.00 in0.0 mm 0.00 in0.0 mm 0.00 in0.0 mm
08:20 AM 66.2°F19.0°C 56.1°F13.4°C 70% 2.7 mph WNW4.3 kmh WNW 4.5 mph7.2 kmh 29.52 in999.7 mb 0.00 in0.0 mm 0.00 in0.0 mm 0.00 in0.0 mm
08:30 AM 66.0°F18.9°C 56.4°F13.6°C 71% 3.2 mph NW5.1 kmh NW 6.0 mph9.7 kmh 29.52 in999.7 mb 0.00 in0.0 mm 0.00 in0.0 mm 0.00 in0.0 mm
08:40 AM 66.4°F19.1°C 56.7°F13.7°C 71% 3.0 mph NW4.8 kmh NW 4.5 mph7.2 kmh 29.51 in999.3 mb 0.00 in0.0 mm 0.00 in0.0 mm 0.00 in0.0 mm
08:50 AM 67.3°F19.6°C 57.2°F14.0°C 70% 3.1 mph NW5.0 kmh NW 5.4 mph8.7 kmh 29.52 in999.7 mb 0.00 in0.0 mm 0.00 in0.0 mm 0.00 in0.0 mm
09:00 AM 67.3°F19.6°C 56.4°F13.6°C 68% 4.2 mph WNW6.8 kmh WNW 5.4 mph8.7 kmh 29.52 in999.7 mb 0.00 in0.0 mm 0.00 in0.0 mm 0.00 in0.0 mm
09:10 AM 68.2°F20.1°C 57.6°F14.2°C 69% 2.9 mph NW4.7 kmh NW 4.5 mph7.2 kmh 29.52 in999.7 mb 0.00 in0.0 mm 0.00 in0.0 mm 0.00 in0.0 mm
09:20 AM 68.5°F20.3°C 57.2°F14.0°C 67% 3.1 mph NW5.0 kmh NW 4.5 mph7.2 kmh 29.52 in999.7 mb 0.00 in0.0 mm 0.00 in0.0 mm 0.00 in0.0 mm
09:30 AM 68.4°F20.2°C 57.0°F13.9°C 67% 4.1 mph NNW6.6 kmh NNW 5.4 mph8.7 kmh 29.52 in999.7 mb 0.00 in0.0 mm 0.00 in0.0 mm 0.00 in0.0 mm
09:40 AM 68.9°F20.5°C 57.1°F13.9°C 66% 3.6 mph NW5.8 kmh NW 6.0 mph9.7 kmh 29.51 in999.3 mb 0.00 in0.0 mm 0.00 in0.0 mm 0.00 in0.0 mm
09:50 AM 68.9°F20.5°C 57.1°F13.9°C 66% 3.8 mph NW6.1 kmh NW 4.5 mph7.2 kmh 29.52 in999.7 mb 0.00 in0.0 mm 0.00 in0.0 mm 0.00 in0.0 mm
10:00 AM 70.2°F21.2°C 58.3°F14.6°C 66% 4.0 mph NW6.4 kmh NW 6.9 mph11.1 kmh 29.52 in999.7 mb 0.00 in0.0 mm 0.00 in0.0 mm 0.00 in0.0 mm
10:10 AM 72.1°F22.3°C 58.9°F14.9°C 63% 4.1 mph NW6.6 kmh NW 6.9 mph11.1 kmh 29.52 in999.7 mb 0.00 in0.0 mm 0.00 in0.0 mm 0.00 in0.0 mm
10:20 AM 71.6°F22.0°C 58.4°F14.7°C 63% 5.0 mph NW8.0 kmh NW 6.9 mph11.1 kmh 29.52 in999.7 mb 0.00 in0.0 mm 0.00 in0.0 mm 0.00 in0.0 mm
10:30 AM 71.8°F22.1°C 58.1°F14.5°C 62% 4.6 mph NW7.4 kmh NW 8.3 mph13.4 kmh 29.53 in1000.0 mb 0.00 in0.0 mm 0.00 in0.0 mm 0.00 in0.0 mm
10:40 AM 72.1°F22.3°C 58.0°F14.4°C 61% 3.9 mph NW6.3 kmh NW 6.0 mph9.7 kmh 29.52 in999.7 mb 0.00 in0.0 mm 0.00 in0.0 mm 0.00 in0.0 mm
10:50 AM 73.6°F23.1°C 56.9°F13.8°C 56% 2.6 mph NW4.2 kmh NW 4.5 mph7.2 kmh 29.51 in999.3 mb 0.00 in0.0 mm 0.00 in0.0 mm 0.00 in0.0 mm
11:00 AM 74.5°F23.6°C 57.8°F14.3°C 56% 4.1 mph N6.6 kmh N 6.0 mph9.7 kmh 29.52 in999.7 mb 0.00 in0.0 mm 0.00 in0.0 mm 0.00 in0.0 mm
11:10 AM 75.7°F24.3°C 57.4°F14.1°C 53% 3.1 mph NNW5.0 kmh NNW 4.5 mph7.2 kmh 29.52 in999.7 mb 0.00 in0.0 mm 0.00 in0.0 mm 0.00 in0.0 mm
11:20 AM 75.0°F23.9°C 55.7°F13.2°C 51% 3.4 mph NNW5.5 kmh NNW 5.4 mph8.7 kmh 29.51 in999.3 mb 0.00 in0.0 mm 0.00 in0.0 mm 0.00 in0.0 mm
11:30 AM 72.5°F22.5°C 54.4°F12.4°C 53% 4.3 mph NW6.9 kmh NW 6.0 mph9.7 kmh 29.52 in999.7 mb 0.00 in0.0 mm 0.00 in0.0 mm 0.00 in0.0 mm
11:40 AM 70.7°F21.5°C 56.6°F13.7°C 61% 4.6 mph NW7.4 kmh NW 6.0 mph9.7 kmh 29.51 in999.3 mb 0.00 in0.0 mm 0.00 in0.0 mm 0.00 in0.0 mm
11:50 AM 69.8°F21.0°C 56.2°F13.4°C 62% 4.0 mph NW6.4 kmh NW 6.0 mph9.7 kmh 29.52 in999.7 mb 0.00 in0.0 mm 0.00 in0.0 mm 0.00 in0.0 mm
12:00 PM 70.0°F21.1°C 56.8°F13.8°C 63% 5.4 mph N8.7 kmh N 6.9 mph11.1 kmh 29.51 in999.3 mb 0.00 in0.0 mm 0.00 in0.0 mm 0.00 in0.0 mm
12:10 PM 71.8°F22.1°C 58.1°F14.5°C 62% 3.7 mph N6.0 kmh N 5.4 mph8.7 kmh 29.52 in999.7 mb 0.00 in0.0 mm 0.00 in0.0 mm 0.00 in0.0 mm
12:20 PM 72.5°F22.5°C 56.4°F13.6°C 57% 3.4 mph N5.5 kmh N 4.5 mph7.2 kmh 29.52 in999.7 mb 0.00 in0.0 mm 0.00 in0.0 mm 0.00 in0.0 mm
12:30 PM 73.2°F22.9°C 56.6°F13.7°C 56% 4.0 mph WNW6.4 kmh WNW 6.0 mph9.7 kmh 29.51 in999.3 mb 0.00 in0.0 mm 0.00 in0.0 mm 0.00 in0.0 mm
12:40 PM 73.8°F23.2°C 56.6°F13.7°C 55% 4.2 mph NW6.8 kmh NW 5.4 mph8.7 kmh 29.52 in999.7 mb 0.00 in0.0 mm 0.00 in0.0 mm 0.00 in0.0 mm
12:50 PM 74.7°F23.7°C 56.9°F13.8°C 54% 4.1 mph NNW6.6 kmh NNW 7.6 mph12.2 kmh 29.51 in999.3 mb 0.00 in0.0 mm 0.00 in0.0 mm 0.00 in0.0 mm
01:00 PM 74.5°F23.6°C 56.3°F13.5°C 53% 5.0 mph NW8.0 kmh NW 7.6 mph12.2 kmh 29.52 in999.7 mb 0.00 in0.0 mm 0.00 in0.0 mm 0.00 in0.0 mm
01:10 PM 75.7°F24.3°C 57.9°F14.4°C 54% 2.9 mph WNW4.7 kmh WNW 6.0 mph9.7 kmh 29.51 in999.3 mb 0.00 in0.0 mm 0.00 in0.0 mm 0.00 in0.0 mm
01:20 PM 76.6°F24.8°C 56.6°F13.7°C 50% 2.8 mph WNW4.5 kmh WNW 4.5 mph7.2 kmh 29.50 in999.0 mb 0.00 in0.0 mm 0.00 in0.0 mm 0.00 in0.0 mm
01:30 PM 75.4°F24.1°C 56.0°F13.3°C 51% 5.5 mph NW8.9 kmh NW 6.9 mph11.1 kmh 29.51 in999.3 mb 0.00 in0.0 mm 0.00 in0.0 mm 0.00 in0.0 mm
01:40 PM 75.7°F24.3°C 56.9°F13.8°C 52% 4.1 mph WNW6.6 kmh WNW 7.6 mph12.2 kmh 29.51 in999.3 mb 0.00 in0.0 mm 0.00 in0.0 mm 0.00 in0.0 mm
01:50 PM 77.5°F25.3°C 58.0°F14.4°C 51% 3.6 mph WNW5.8 kmh WNW 5.4 mph8.7 kmh 29.51 in999.3 mb 0.00 in0.0 mm 0.00 in0.0 mm 0.00 in0.0 mm
02:00 PM 77.0°F25.0°C 57.0°F13.9°C 50% 5.0 mph NW8.0 kmh NW 8.3 mph13.4 kmh 29.50 in999.0 mb 0.00 in0.0 mm 0.00 in0.0 mm 0.00 in0.0 mm
02:10 PM 77.5°F25.3°C 57.5°F14.2°C 50% 4.9 mph NW7.9 kmh NW 10.7 mph17.2 kmh 29.50 in999.0 mb 0.00 in0.0 mm 0.00 in0.0 mm 0.00 in0.0 mm
02:20 PM 77.2°F25.1°C 55.4°F13.0°C 47% 5.9 mph SW9.5 kmh SW 10.7 mph17.2 kmh 29.50 in999.0 mb 0.00 in0.0 mm 0.00 in0.0 mm 0.00 in0.0 mm
02:30 PM 78.1°F25.6°C 57.4°F14.1°C 49% 4.4 mph W7.1 kmh W 6.0 mph9.7 kmh 29.50 in999.0 mb 0.00 in0.0 mm 0.00 in0.0 mm 0.00 in0.0 mm
02:40 PM 78.4°F25.8°C 59.4°F15.2°C 52% 4.3 mph NNW6.9 kmh NNW 6.0 mph9.7 kmh 29.50 in999.0 mb 0.00 in0.0 mm 0.00 in0.0 mm 0.00 in0.0 mm
02:50 PM 80.2°F26.8°C 60.0°F15.6°C 50% 5.5 mph SW8.9 kmh SW 7.6 mph12.2 kmh 29.50 in999.0 mb 0.00 in0.0 mm 0.00 in0.0 mm 0.00 in0.0 mm
03:00 PM 78.8°F26.0°C 58.1°F14.5°C 49% 5.9 mph SW9.5 kmh SW 8.3 mph13.4 kmh 29.49 in998.6 mb 0.00 in0.0 mm 0.00 in0.0 mm 0.00 in0.0 mm
03:10 PM 76.5°F24.7°C 57.6°F14.2°C 52% 4.9 mph W7.9 kmh W 9.2 mph14.8 kmh 29.50 in999.0 mb 0.00 in0.0 mm 0.00 in0.0 mm 0.00 in0.0 mm
03:20 PM 75.2°F24.0°C 57.4°F14.1°C 54% 4.0 mph SW6.4 kmh SW 9.2 mph14.8 kmh 29.50 in999.0 mb 0.00 in0.0 mm 0.00 in0.0 mm 0.00 in0.0 mm
03:30 PM 75.6°F24.2°C 58.3°F14.6°C 55% 4.4 mph S7.1 kmh S 7.6 mph12.2 kmh 29.49 in998.6 mb 0.00 in0.0 mm 0.00 in0.0 mm 0.00 in0.0 mm
03:40 PM 76.1°F24.5°C 59.3°F15.2°C 56% 4.5 mph SSW7.2 kmh SSW 8.3 mph13.4 kmh 29.50 in999.0 mb 0.00 in0.0 mm 0.00 in0.0 mm 0.00 in0.0 mm
03:50 PM 77.0°F25.0°C 59.6°F15.3°C 55% 4.3 mph SSW6.9 kmh SSW 6.0 mph9.7 kmh 29.50 in999.0 mb 0.00 in0.0 mm 0.00 in0.0 mm 0.00 in0.0 mm
04:00 PM 75.2°F24.0°C 59.4°F15.2°C 58% 6.1 mph SW9.8 kmh SW 9.8 mph15.8 kmh 29.50 in999.0 mb 0.00 in0.0 mm 0.00 in0.0 mm 0.00 in0.0 mm
04:10 PM 74.5°F23.6°C 58.8°F14.9°C 58% 6.4 mph SW10.3 kmh SW 9.2 mph14.8 kmh 29.49 in998.6 mb 0.00 in0.0 mm 0.00 in0.0 mm 0.00 in0.0 mm
04:20 PM 73.2°F22.9°C 58.5°F14.7°C 60% 5.1 mph NW8.2 kmh NW 9.2 mph14.8 kmh 29.50 in999.0 mb 0.00 in0.0 mm 0.00 in0.0 mm 0.00 in0.0 mm
04:30 PM 73.0°F22.8°C 58.4°F14.7°C 60% 3.6 mph SW5.8 kmh SW 7.6 mph12.2 kmh 29.50 in999.0 mb 0.00 in0.0 mm 0.00 in0.0 mm 0.00 in0.0 mm
04:40 PM 71.8°F22.1°C 58.5°F14.7°C 63% 4.9 mph SSE7.9 kmh SSE 7.6 mph12.2 kmh 29.50 in999.0 mb 0.00 in0.0 mm 0.00 in0.0 mm 0.00 in0.0 mm
04:50 PM 71.8°F22.1°C 59.0°F15.0°C 64% 3.9 mph SSW6.3 kmh SSW 7.6 mph12.2 kmh 29.50 in999.0 mb 0.00 in0.0 mm 0.00 in0.0 mm 0.00 in0.0 mm
05:00 PM 71.8°F22.1°C 59.0°F15.0°C 64% 2.9 mph SW4.7 kmh SW 4.5 mph7.2 kmh 29.49 in998.6 mb 0.00 in0.0 mm 0.00 in0.0 mm 0.00 in0.0 mm
05:10 PM 71.4°F21.9°C 58.2°F14.6°C 63% 3.2 mph W5.1 kmh W 5.4 mph8.7 kmh 29.50 in999.0 mb 0.00 in0.0 mm 0.00 in0.0 mm 0.00 in0.0 mm
05:20 PM 70.3°F21.3°C 58.0°F14.4°C 65% 3.2 mph NE5.1 kmh NE 4.5 mph7.2 kmh 29.50 in999.0 mb 0.00 in0.0 mm 0.00 in0.0 mm 0.00 in0.0 mm
05:30 PM 69.4°F20.8°C 57.6°F14.2°C 66% 3.8 mph NNE6.1 kmh NNE 5.4 mph8.7 kmh 29.51 in999.3 mb 0.00 in0.0 mm 0.00 in0.0 mm 0.00 in0.0 mm
05:40 PM 68.9°F20.5°C 57.5°F14.2°C 67% 4.5 mph NE7.2 kmh NE 6.0 mph9.7 kmh 29.50 in999.0 mb 0.00 in0.0 mm 0.00 in0.0 mm 0.00 in0.0 mm
05:50 PM 68.5°F20.3°C 57.6°F14.2°C 68% 3.1 mph NE5.0 kmh NE 3.8 mph6.1 kmh 29.49 in998.6 mb 0.00 in0.0 mm 0.00 in0.0 mm 0.00 in0.0 mm
06:00 PM 68.2°F20.1°C 57.6°F14.2°C 69% 3.9 mph NE6.3 kmh NE 5.4 mph8.7 kmh 29.50 in999.0 mb 0.00 in0.0 mm 0.00 in0.0 mm 0.00 in0.0 mm
06:10 PM 68.2°F20.1°C 57.6°F14.2°C 69% 1.3 mph NE2.1 kmh NE 4.5 mph7.2 kmh 29.50 in999.0 mb 0.00 in0.0 mm 0.00 in0.0 mm 0.00 in0.0 mm
06:20 PM 68.2°F20.1°C 58.0°F14.4°C 70% 1.3 mph NE2.1 kmh NE 3.1 mph5.0 kmh 29.49 in998.6 mb 0.00 in0.0 mm 0.00 in0.0 mm 0.00 in0.0 mm
06:30 PM 68.2°F20.1°C 58.0°F14.4°C 70% 1.8 mph NE2.9 kmh NE 3.1 mph5.0 kmh 29.49 in998.6 mb 0.00 in0.0 mm 0.00 in0.0 mm 0.00 in0.0 mm
06:40 PM 68.4°F20.2°C 58.2°F14.6°C 70% 2.2 mph NE3.5 kmh NE 3.8 mph6.1 kmh 29.49 in998.6 mb 0.00 in0.0 mm 0.00 in0.0 mm 0.00 in0.0 mm
06:50 PM 68.0°F20.0°C 57.9°F14.4°C 70% 3.2 mph NE5.1 kmh NE 4.5 mph7.2 kmh 29.49 in998.6 mb 0.00 in0.0 mm 0.00 in0.0 mm 0.00 in0.0 mm
07:00 PM 68.0°F20.0°C 58.3°F14.6°C 71% 2.7 mph NE4.3 kmh NE 4.5 mph7.2 kmh 29.49 in998.6 mb 0.00 in0.0 mm 0.00 in0.0 mm 0.00 in0.0 mm
07:10 PM 68.5°F20.3°C 58.4°F14.7°C 70% 1.6 mph NW2.6 kmh NW 3.1 mph5.0 kmh 29.50 in999.0 mb 0.00 in0.0 mm 0.00 in0.0 mm 0.00 in0.0 mm
07:20 PM 68.4°F20.2°C 58.2°F14.6°C 70% 2.9 mph NNW4.7 kmh NNW 3.8 mph6.1 kmh 29.50 in999.0 mb 0.00 in0.0 mm 0.00 in0.0 mm 0.00 in0.0 mm
07:30 PM 68.0°F20.0°C 57.9°F14.4°C 70% 3.4 mph N5.5 kmh N 6.0 mph9.7 kmh 29.50 in999.0 mb 0.00 in0.0 mm 0.00 in0.0 mm 0.00 in0.0 mm
07:40 PM 66.7°F19.3°C 56.7°F13.7°C 70% 5.5 mph NE8.9 kmh NE 7.6 mph12.2 kmh 29.51 in999.3 mb 0.00 in0.0 mm 0.00 in0.0 mm 0.00 in0.0 mm
07:50 PM 66.0°F18.9°C 56.8°F13.8°C 72% 4.2 mph NNE6.8 kmh NNE 6.0 mph9.7 kmh 29.50 in999.0 mb 0.00 in0.0 mm 0.00 in0.0 mm 0.00 in0.0 mm
08:00 PM 65.5°F18.6°C 56.6°F13.7°C 73% 2.5 mph NE4.0 kmh NE 3.8 mph6.1 kmh 29.50 in999.0 mb 0.00 in0.0 mm 0.00 in0.0 mm 0.00 in0.0 mm
08:10 PM 65.3°F18.5°C 56.4°F13.6°C 73% 1.3 mph NNE2.1 kmh NNE 2.2 mph3.5 kmh 29.50 in999.0 mb 0.00 in0.0 mm 0.00 in0.0 mm 0.00 in0.0 mm
08:20 PM 65.3°F18.5°C 56.8°F13.8°C 74% 1.3 mph NNW2.1 kmh NNW 2.2 mph3.5 kmh 29.50 in999.0 mb 0.00 in0.0 mm 0.00 in0.0 mm 0.00 in0.0 mm
08:30 PM 65.1°F18.4°C 56.6°F13.7°C 74% 1.2 mph NNW1.9 kmh NNW 2.2 mph3.5 kmh 29.50 in999.0 mb 0.00 in0.0 mm 0.00 in0.0 mm 0.00 in0.0 mm
08:40 PM 64.8°F18.2°C 56.3°F13.5°C 74% 0.2 mph NW0.3 kmh NW 0.7 mph1.1 kmh 29.50 in999.0 mb 0.00 in0.0 mm 0.00 in0.0 mm 0.00 in0.0 mm
08:50 PM 64.8°F18.2°C 56.3°F13.5°C 74% 0.8 mph NW1.3 kmh NW 1.6 mph2.6 kmh 29.50 in999.0 mb 0.00 in0.0 mm 0.00 in0.0 mm 0.00 in0.0 mm
09:00 PM 64.6°F18.1°C 56.1°F13.4°C 74% 0.3 mph E0.5 kmh E 0.7 mph1.1 kmh 29.51 in999.3 mb 0.00 in0.0 mm 0.00 in0.0 mm 0.00 in0.0 mm
09:10 PM 64.2°F17.9°C 56.1°F13.4°C 75% 0.5 mph E0.8 kmh E 1.6 mph2.6 kmh 29.50 in999.0 mb 0.00 in0.0 mm 0.00 in0.0 mm 0.00 in0.0 mm
09:20 PM 64.0°F17.8°C 56.3°F13.5°C 76% 1.2 mph NW1.9 kmh NW 3.1 mph5.0 kmh 29.51 in999.3 mb 0.00 in0.0 mm 0.00 in0.0 mm 0.00 in0.0 mm
09:30 PM 63.7°F17.6°C 56.4°F13.6°C 77% 0.3 mph NW0.5 kmh NW 1.6 mph2.6 kmh 29.51 in999.3 mb 0.00 in0.0 mm 0.00 in0.0 mm 0.00 in0.0 mm
09:40 PM 63.7°F17.6°C 56.4°F13.6°C 77% Calm Calm -- 29.51 in999.3 mb 0.00 in0.0 mm 0.00 in0.0 mm 0.00 in0.0 mm
09:50 PM 64.0°F17.8°C 57.1°F13.9°C 78% 0.7 mph S1.1 kmh S 1.6 mph2.6 kmh 29.52 in999.7 mb 0.00 in0.0 mm 0.00 in0.0 mm 0.00 in0.0 mm
10:00 PM 64.4°F18.0°C 57.1°F13.9°C 77% 1.7 mph SW2.7 kmh SW 2.2 mph3.5 kmh 29.52 in999.7 mb 0.00 in0.0 mm 0.00 in0.0 mm 0.00 in0.0 mm
10:10 PM 64.4°F18.0°C 56.7°F13.7°C 76% 1.9 mph NNE3.1 kmh NNE 3.8 mph6.1 kmh 29.52 in999.7 mb 0.00 in0.0 mm 0.00 in0.0 mm 0.00 in0.0 mm
10:20 PM 64.2°F17.9°C 56.9°F13.8°C 77% 0.4 mph E0.6 kmh E 1.6 mph2.6 kmh 29.52 in999.7 mb 0.00 in0.0 mm 0.00 in0.0 mm 0.00 in0.0 mm
10:30 PM 64.0°F17.8°C 56.7°F13.7°C 77% 0.1 mph SE0.2 kmh SE 0.7 mph1.1 kmh 29.52 in999.7 mb 0.00 in0.0 mm 0.00 in0.0 mm 0.00 in0.0 mm
10:40 PM 64.0°F17.8°C 56.7°F13.7°C 77% 0.8 mph NE1.3 kmh NE 2.2 mph3.5 kmh 29.52 in999.7 mb 0.00 in0.0 mm 0.00 in0.0 mm 0.00 in0.0 mm
10:50 PM 63.9°F17.7°C 56.9°F13.8°C 78% 1.1 mph ENE1.8 kmh ENE 2.2 mph3.5 kmh 29.52 in999.7 mb 0.00 in0.0 mm 0.00 in0.0 mm 0.00 in0.0 mm
11:00 PM 64.0°F17.8°C 57.1°F13.9°C 78% 1.7 mph N2.7 kmh N 3.1 mph5.0 kmh 29.51 in999.3 mb 0.00 in0.0 mm 0.00 in0.0 mm 0.00 in0.0 mm
11:10 PM 63.9°F17.7°C 56.9°F13.8°C 78% 1.6 mph NE2.6 kmh NE 3.1 mph5.0 kmh 29.51 in999.3 mb 0.00 in0.0 mm 0.00 in0.0 mm 0.00 in0.0 mm
11:20 PM 63.7°F17.6°C 56.7°F13.7°C 78% 1.0 mph NE1.6 kmh NE 1.6 mph2.6 kmh 29.52 in999.7 mb 0.00 in0.0 mm 0.00 in0.0 mm 0.00 in0.0 mm
11:30 PM 63.5°F17.5°C 56.5°F13.6°C 78% 0.3 mph NE0.5 kmh NE 0.7 mph1.1 kmh 29.52 in999.7 mb 0.00 in0.0 mm 0.00 in0.0 mm 0.00 in0.0 mm
11:40 PM 63.3°F17.4°C 57.7°F14.3°C 82% 0.5 mph N0.8 kmh N 1.6 mph2.6 kmh 29.50 in999.0 mb 0.00 in0.0 mm 0.00 in0.0 mm 0.00 in0.0 mm
11:50 PM 63.5°F17.5°C 57.2°F14.0°C 80% 1.1 mph WNW1.8 kmh WNW 3.1 mph5.0 kmh 29.51 in999.3 mb 0.00 in0.0 mm 0.00 in0.0 mm 0.00 in0.0 mm